createdAt,value
2023-05-10T00:00:23.677Z,11.90
2023-05-10T00:03:25.695Z,11.81
2023-05-10T00:06:27.919Z,11.67
2023-05-10T00:09:32.097Z,11.69
2023-05-10T00:12:33.875Z,11.66
2023-05-10T00:15:36.053Z,11.74
2023-05-10T00:18:37.903Z,11.71
2023-05-10T00:21:39.676Z,11.75
2023-05-10T00:24:42.984Z,11.70
2023-05-10T00:27:44.781Z,11.73
2023-05-10T00:30:46.513Z,11.57
2023-05-10T00:33:48.295Z,11.53
2023-05-10T00:36:50.109Z,11.61
2023-05-10T00:39:54.305Z,12.08
2023-05-10T00:42:56.707Z,12.28
2023-05-10T00:45:58.880Z,12.36
2023-05-10T00:49:00.941Z,12.44
2023-05-10T00:52:04.105Z,12.33
2023-05-10T00:55:10.701Z,12.21
2023-05-10T00:58:13.362Z,11.89
2023-05-10T01:01:15.951Z,11.79
2023-05-10T01:04:17.872Z,11.61
2023-05-10T01:07:20.635Z,11.33
2023-05-10T01:10:24.088Z,10.72
2023-05-10T01:13:33.558Z,11.25
2023-05-10T01:16:38.469Z,11.21
2023-05-10T01:19:40.617Z,11.18
2023-05-10T01:23:11.040Z,11.07
2023-05-10T01:26:35.433Z,11.04
2023-05-10T01:30:21.902Z,10.90
2023-05-10T01:33:29.875Z,10.96
2023-05-10T01:36:36.160Z,11.01
2023-05-10T01:39:45.747Z,10.91
2023-05-10T01:42:53.393Z,10.84
2023-05-10T01:46:05.726Z,10.87
2023-05-10T01:49:11.695Z,10.94
2023-05-10T01:52:20.339Z,10.96
2023-05-10T01:55:24.295Z,10.93
2023-05-10T01:58:35.379Z,10.80
2023-05-10T02:01:38.951Z,11.02
2023-05-10T02:04:43.198Z,11.03
2023-05-10T02:07:46.588Z,11.04
2023-05-10T02:10:50.855Z,11.07
2023-05-10T02:13:55.024Z,11.04
2023-05-10T02:16:59.610Z,10.88
2023-05-10T02:20:04.980Z,11.05
2023-05-10T02:23:10.094Z,11.03
2023-05-10T02:26:14.468Z,10.98
2023-05-10T02:29:17.893Z,11.04
2023-05-10T02:32:20.485Z,11.09
2023-05-10T02:35:25.298Z,11.15
2023-05-10T02:38:28.064Z,11.14
2023-05-10T02:41:33.465Z,11.25
2023-05-10T02:44:37.686Z,11.29
2023-05-10T02:47:40.638Z,11.21
2023-05-10T02:50:45.977Z,11.25
2023-05-10T02:53:49.304Z,11.61
2023-05-10T02:56:54.911Z,11.65
2023-05-10T02:59:56.941Z,11.91
2023-05-10T03:02:59.537Z,11.92
2023-05-10T03:06:02.821Z,12.01
2023-05-10T03:09:05.626Z,12.02
2023-05-10T03:12:15.192Z,12.24
2023-05-10T03:15:26.112Z,12.29
2023-05-10T03:18:34.891Z,12.28
2023-05-10T03:21:42.702Z,12.41
2023-05-10T03:24:47.745Z,12.52
2023-05-10T03:27:50.945Z,12.47
2023-05-10T03:30:54.117Z,12.41
2023-05-10T03:33:56.080Z,12.43
2023-05-10T03:36:59.397Z,12.47
2023-05-10T03:40:02.253Z,12.38
2023-05-10T03:43:04.164Z,12.29
2023-05-10T03:46:06.600Z,12.07
2023-05-10T03:49:09.136Z,12.30
2023-05-10T03:52:13.048Z,12.21
2023-05-10T03:55:15.230Z,12.26
2023-05-10T03:58:17.089Z,12.26
2023-05-10T04:01:18.880Z,12.15
2023-05-10T04:04:22.450Z,12.26
2023-05-10T04:07:25.641Z,12.19
2023-05-10T04:10:28.160Z,12.25
2023-05-10T04:13:29.926Z,12.26
2023-05-10T04:16:31.922Z,12.26
2023-05-10T04:19:34.780Z,12.33
2023-05-10T04:22:38.016Z,12.39
2023-05-10T04:25:40.121Z,12.48
2023-05-10T04:28:41.891Z,12.60
2023-05-10T04:31:43.737Z,12.65
2023-05-10T04:34:46.136Z,12.80
2023-05-10T04:37:49.398Z,12.66
2023-05-10T04:40:51.192Z,12.84
2023-05-10T04:43:53.113Z,12.93
2023-05-10T04:46:54.992Z,12.91
2023-05-10T04:49:57.043Z,13.14
2023-05-10T04:53:00.405Z,13.22
2023-05-10T04:56:02.217Z,13.34
2023-05-10T04:59:05.126Z,13.44
2023-05-10T05:02:07.040Z,13.48
2023-05-10T05:05:09.377Z,13.58
2023-05-10T05:08:12.605Z,13.62
2023-05-10T05:11:14.434Z,13.70
2023-05-10T05:14:17.017Z,13.76
2023-05-10T05:17:18.846Z,13.82
2023-05-10T05:20:21.201Z,13.87
2023-05-10T05:23:25.910Z,13.95
2023-05-10T05:26:27.761Z,13.91
2023-05-10T05:29:29.929Z,13.97
2023-05-10T05:32:31.885Z,14.11
2023-05-10T05:35:34.480Z,14.01
2023-05-10T05:38:37.862Z,13.78
2023-05-10T05:41:39.733Z,13.76
2023-05-10T05:44:41.980Z,13.84
2023-05-10T05:47:43.888Z,13.85
2023-05-10T05:50:46.670Z,13.86
2023-05-10T05:53:49.863Z,13.86
2023-05-10T05:56:51.821Z,13.89
2023-05-10T05:59:54.161Z,13.85
2023-05-10T06:02:56.073Z,13.07
2023-05-10T06:05:58.858Z,12.65
2023-05-10T06:09:02.098Z,12.76
2023-05-10T06:12:04.238Z,12.77
2023-05-10T06:15:06.988Z,13.04
2023-05-10T06:18:08.826Z,13.46
2023-05-10T06:21:10.891Z,13.25
2023-05-10T06:24:14.134Z,13.54
2023-05-10T06:27:15.953Z,13.48
2023-05-10T06:30:17.851Z,13.72
2023-05-10T06:33:19.640Z,13.97
2023-05-10T06:36:21.895Z,14.22
2023-05-10T06:39:25.138Z,14.47
2023-05-10T06:42:28.388Z,13.28
2023-05-10T06:45:30.207Z,13.33
2023-05-10T06:48:32.075Z,13.44
2023-05-10T06:51:34.000Z,13.83
2023-05-10T06:54:38.118Z,14.52
2023-05-10T06:57:39.856Z,14.42
2023-05-10T07:00:44.640Z,14.55
2023-05-10T07:03:46.540Z,14.53
2023-05-10T07:06:48.485Z,14.76
2023-05-10T07:09:52.283Z,14.69
2023-05-10T07:12:54.288Z,14.89
2023-05-10T07:15:56.140Z,15.05
2023-05-10T07:18:58.009Z,14.94
2023-05-10T07:22:00.694Z,14.95
2023-05-10T07:25:04.205Z,14.95
2023-05-10T07:28:06.825Z,14.63
2023-05-10T07:31:08.800Z,15.01
2023-05-10T07:34:11.016Z,15.08
2023-05-10T07:37:13.644Z,15.15
2023-05-10T07:40:16.903Z,15.23
2023-05-10T07:43:19.667Z,15.13
2023-05-10T07:46:21.712Z,15.15
2023-05-10T07:49:25.280Z,15.31
2023-05-10T07:52:27.159Z,15.28
2023-05-10T07:55:31.198Z,15.17
2023-05-10T07:58:33.195Z,15.36
2023-05-10T08:01:36.095Z,15.52
2023-05-10T08:04:37.991Z,15.19
2023-05-10T08:07:40.695Z,15.18
2023-05-10T08:10:44.168Z,15.23
2023-05-10T08:13:46.610Z,15.24
2023-05-10T08:16:48.639Z,15.28
2023-05-10T08:19:50.561Z,15.30
2023-05-10T08:22:52.458Z,15.28
2023-05-10T08:25:55.743Z,15.14
2023-05-10T08:28:58.460Z,15.29
2023-05-10T08:32:01.943Z,15.63
2023-05-10T08:35:04.976Z,15.65
2023-05-10T08:38:06.799Z,15.73
2023-05-10T08:41:12.202Z,16.45
2023-05-10T08:44:13.862Z,16.19
2023-05-10T08:47:19.235Z,16.45
2023-05-10T08:50:21.420Z,16.30
2023-05-10T08:53:26.777Z,15.91
2023-05-10T08:56:30.930Z,16.28
2023-05-10T08:59:34.152Z,16.13
2023-05-10T09:02:38.366Z,16.34
2023-05-10T09:05:40.314Z,16.38
2023-05-10T09:08:43.889Z,16.10
2023-05-10T09:11:47.670Z,16.49
2023-05-10T09:14:51.783Z,16.35
2023-05-10T09:17:53.938Z,16.45
2023-05-10T09:20:56.031Z,16.25
2023-05-10T09:23:58.340Z,16.14
2023-05-10T09:27:02.816Z,16.13
2023-05-10T09:30:07.612Z,16.54
2023-05-10T09:33:09.450Z,16.52
2023-05-10T09:36:11.995Z,17.57
2023-05-10T09:39:13.868Z,17.83
2023-05-10T09:42:19.648Z,17.36
2023-05-10T09:45:22.259Z,17.55
2023-05-10T09:48:25.914Z,17.82
2023-05-10T09:51:30.350Z,17.96
2023-05-10T09:54:32.943Z,17.52
2023-05-10T09:57:36.240Z,17.45
2023-05-10T10:00:40.317Z,17.08
2023-05-10T10:03:44.348Z,16.92
2023-05-10T10:06:46.343Z,17.13
2023-05-10T10:09:48.410Z,17.33
2023-05-10T10:12:51.919Z,17.75
2023-05-10T10:15:55.892Z,17.79
2023-05-10T10:18:57.998Z,17.47
2023-05-10T10:22:00.214Z,17.04
2023-05-10T10:25:02.429Z,17.02
2023-05-10T10:28:23.123Z,17.18
2023-05-10T10:31:32.157Z,17.08
2023-05-10T10:34:34.675Z,17.50
2023-05-10T10:37:45.161Z,17.39
2023-05-10T10:40:47.179Z,17.35
2023-05-10T10:43:50.387Z,17.72
2023-05-10T10:47:03.781Z,17.43
2023-05-10T10:50:09.092Z,17.40
2023-05-10T10:53:12.517Z,17.78
2023-05-10T10:56:16.330Z,17.75
2023-05-10T10:59:29.414Z,17.62
2023-05-10T11:02:36.344Z,17.76
2023-05-10T11:05:41.574Z,18.18
2023-05-10T11:08:47.117Z,18.69
2023-05-10T11:11:56.116Z,18.73
2023-05-10T11:15:00.079Z,18.13
2023-05-10T11:18:19.086Z,17.88
2023-05-10T11:21:21.060Z,18.06
2023-05-10T11:24:24.293Z,17.79
2023-05-10T11:27:26.670Z,17.89
2023-05-10T11:30:32.009Z,18.14
2023-05-10T11:33:43.784Z,18.02
2023-05-10T11:36:52.819Z,18.03
2023-05-10T11:39:56.134Z,17.85
2023-05-10T11:42:58.061Z,17.85
2023-05-10T11:46:01.516Z,17.99
2023-05-10T11:49:05.626Z,17.94
2023-05-10T11:52:08.251Z,17.88
2023-05-10T11:55:11.030Z,17.83
2023-05-10T11:58:12.835Z,17.81
2023-05-10T12:01:16.362Z,17.63
2023-05-10T12:04:18.423Z,17.74
2023-05-10T12:07:20.644Z,17.75
2023-05-10T12:10:28.266Z,17.74
2023-05-10T12:13:30.126Z,17.79
2023-05-10T12:16:33.592Z,17.80
2023-05-10T12:19:39.635Z,18.00
2023-05-10T12:22:41.596Z,17.88
2023-05-10T12:25:44.389Z,18.18
2023-05-10T12:28:46.159Z,18.38
2023-05-10T12:31:55.483Z,18.39
2023-05-10T12:34:58.857Z,17.85
2023-05-10T12:38:00.782Z,18.63
2023-05-10T12:41:05.253Z,18.85
2023-05-10T12:44:07.174Z,18.81
2023-05-10T12:47:11.835Z,18.69
2023-05-10T12:50:13.594Z,18.63
2023-05-10T12:53:16.668Z,18.51
2023-05-10T12:56:18.528Z,18.50
2023-05-10T12:59:20.893Z,18.71
2023-05-10T13:02:24.327Z,19.23
2023-05-10T13:05:26.798Z,19.96
2023-05-10T13:08:30.732Z,20.02
2023-05-10T13:11:32.754Z,18.76
2023-05-10T13:14:34.552Z,18.75
2023-05-10T13:17:39.961Z,18.86
2023-05-10T13:20:44.121Z,19.11
2023-05-10T13:23:46.030Z,19.25
2023-05-10T13:26:47.855Z,19.22
2023-05-10T13:29:49.730Z,18.87
2023-05-10T13:32:53.006Z,18.89
2023-05-10T13:35:55.935Z,18.68
2023-05-10T13:38:57.846Z,18.73
2023-05-10T13:41:59.629Z,18.54
2023-05-10T13:45:02.843Z,19.03
2023-05-10T13:48:06.909Z,19.07
2023-05-10T13:51:09.635Z,18.83
2023-05-10T13:54:13.453Z,18.58
2023-05-10T13:57:17.739Z,18.56
2023-05-10T14:00:20.087Z,18.67
2023-05-10T14:03:23.336Z,18.95
2023-05-10T14:06:25.671Z,19.61
2023-05-10T14:09:27.394Z,19.78
2023-05-10T14:12:29.102Z,20.13
2023-05-10T14:15:30.891Z,20.19
2023-05-10T14:18:34.062Z,19.77
2023-05-10T14:21:36.651Z,19.92
2023-05-10T14:24:39.238Z,19.53
2023-05-10T14:27:41.766Z,19.49
2023-05-10T14:30:43.574Z,19.74
2023-05-10T14:33:47.084Z,19.31
2023-05-10T14:36:48.906Z,19.52
2023-05-10T14:39:51.578Z,19.45
2023-05-10T14:42:54.065Z,19.46
2023-05-10T14:45:56.642Z,19.36
2023-05-10T14:48:59.798Z,19.54
2023-05-10T14:52:01.752Z,19.03
2023-05-10T14:55:05.246Z,18.94
2023-05-10T14:58:07.073Z,18.95
2023-05-10T15:01:08.959Z,19.01
2023-05-10T15:04:14.488Z,18.89
2023-05-10T15:07:18.418Z,19.07
2023-05-10T15:10:20.573Z,19.04
2023-05-10T15:13:22.358Z,18.76
2023-05-10T15:16:24.767Z,18.63
2023-05-10T15:19:28.442Z,18.43
2023-05-10T15:22:32.436Z,18.44
2023-05-10T15:25:36.174Z,18.31
2023-05-10T15:28:38.439Z,18.26
2023-05-10T15:31:40.586Z,18.17
2023-05-10T15:34:44.860Z,18.13
2023-05-10T15:37:48.439Z,18.06
2023-05-10T15:40:50.237Z,18.03
2023-05-10T15:43:52.384Z,18.02
2023-05-10T15:46:54.317Z,18.14
2023-05-10T15:49:57.867Z,17.99
2023-05-10T15:52:59.747Z,17.55
2023-05-10T15:56:02.459Z,17.87
2023-05-10T15:59:06.171Z,17.89
2023-05-10T16:02:09.226Z,17.76
2023-05-10T16:05:13.972Z,17.72
2023-05-10T16:08:16.388Z,17.70
2023-05-10T16:11:18.173Z,17.82
2023-05-10T16:14:23.005Z,17.97
2023-05-10T16:17:25.020Z,18.10
2023-05-10T16:20:30.109Z,18.11
2023-05-10T16:23:32.252Z,18.13
2023-05-10T16:26:40.785Z,18.10
2023-05-10T16:29:42.716Z,18.05
2023-05-10T16:32:44.573Z,17.90
2023-05-10T16:35:48.751Z,17.87
2023-05-10T16:38:51.298Z,17.87
2023-05-10T16:41:53.339Z,17.78
2023-05-10T16:44:55.262Z,17.83
2023-05-10T16:47:57.307Z,17.80
2023-05-10T16:51:02.476Z,17.81
2023-05-10T16:54:05.455Z,17.78
2023-05-10T16:57:08.587Z,17.76
2023-05-10T17:00:12.110Z,17.68
2023-05-10T17:03:14.037Z,17.20
2023-05-10T17:06:17.616Z,17.56
2023-05-10T17:09:20.667Z,17.53
2023-05-10T17:12:23.278Z,17.44
2023-05-10T17:15:25.035Z,17.40
2023-05-10T17:18:27.117Z,17.20
2023-05-10T17:21:32.131Z,17.26
2023-05-10T17:24:34.020Z,17.23
2023-05-10T17:27:36.203Z,17.17
2023-05-10T17:30:38.029Z,17.07
2023-05-10T17:33:40.336Z,16.96
2023-05-10T17:36:43.577Z,16.91
2023-05-10T17:39:46.503Z,16.90
2023-05-10T17:42:48.866Z,16.87
2023-05-10T17:45:50.772Z,16.89
2023-05-10T17:48:53.130Z,16.81
2023-05-10T17:51:56.356Z,16.73
2023-05-10T17:55:00.142Z,16.70
2023-05-10T17:58:02.106Z,16.63
2023-05-10T18:01:04.556Z,16.51
2023-05-10T18:04:07.967Z,16.42
2023-05-10T18:07:11.186Z,16.31
2023-05-10T18:10:13.059Z,16.03
2023-05-10T18:13:14.951Z,16.09
2023-05-10T18:16:16.828Z,15.69
2023-05-10T18:19:19.075Z,15.71
2023-05-10T18:22:22.692Z,15.77
2023-05-10T18:25:25.630Z,15.63
2023-05-10T18:28:27.612Z,15.08
2023-05-10T18:31:30.220Z,14.12
2023-05-10T18:34:32.090Z,14.93
2023-05-10T18:37:36.018Z,14.63
2023-05-10T18:40:39.094Z,14.55
2023-05-10T18:43:42.728Z,14.34
2023-05-10T18:46:46.245Z,14.39
2023-05-10T18:49:48.519Z,14.20
2023-05-10T18:52:52.061Z,14.05
2023-05-10T18:55:58.910Z,13.98
2023-05-10T18:59:02.900Z,13.85
2023-05-10T19:02:05.119Z,13.79
2023-05-10T19:05:08.211Z,13.81
2023-05-10T19:08:11.580Z,13.75
2023-05-10T19:11:14.968Z,13.59
2023-05-10T19:14:17.509Z,13.59
2023-05-10T19:17:20.837Z,13.60
2023-05-10T19:20:23.992Z,13.40
2023-05-10T19:23:27.380Z,13.47
2023-05-10T19:26:30.582Z,13.53
2023-05-10T19:29:32.706Z,13.41
2023-05-10T19:32:36.556Z,13.41
2023-05-10T19:35:39.770Z,13.40
2023-05-10T19:38:43.047Z,13.47
2023-05-10T19:41:45.500Z,13.39
2023-05-10T19:44:48.556Z,13.20
2023-05-10T19:47:51.013Z,13.25
2023-05-10T19:50:53.554Z,12.95
2023-05-10T19:53:56.839Z,13.44
2023-05-10T19:56:59.594Z,13.26
2023-05-10T20:00:01.564Z,13.19
2023-05-10T20:03:07.000Z,13.39
2023-05-10T20:06:14.670Z,13.81
2023-05-10T20:09:47.368Z,14.06
2023-05-10T20:13:10.393Z,14.06
2023-05-10T20:16:15.858Z,14.10
2023-05-10T20:19:21.441Z,14.01
2023-05-10T20:22:25.756Z,14.10
2023-05-10T20:25:29.087Z,14.24
2023-05-10T20:28:32.070Z,14.30
2023-05-10T20:31:34.079Z,14.35
2023-05-10T20:34:39.472Z,14.25
2023-05-10T20:37:41.568Z,14.16
2023-05-10T20:40:45.585Z,14.17
2023-05-10T20:43:47.483Z,14.17
2023-05-10T20:46:49.870Z,13.94
2023-05-10T20:49:51.771Z,13.85
2023-05-10T20:52:53.640Z,13.82
2023-05-10T20:55:57.122Z,13.62
2023-05-10T20:58:59.051Z,13.58
2023-05-10T21:02:01.325Z,13.65
2023-05-10T21:05:03.979Z,13.63
2023-05-10T21:08:05.974Z,13.61
2023-05-10T21:11:10.042Z,13.68
2023-05-10T21:14:11.923Z,13.73
2023-05-10T21:17:14.752Z,13.76
2023-05-10T21:20:17.143Z,13.73
2023-05-10T21:23:19.146Z,13.78
2023-05-10T21:26:22.378Z,13.87
2023-05-10T21:29:24.571Z,13.84
2023-05-10T21:32:26.389Z,13.78
2023-05-10T21:35:30.394Z,13.82
2023-05-10T21:38:33.352Z,13.91
2023-05-10T21:41:36.501Z,13.77
2023-05-10T21:44:38.809Z,13.77
2023-05-10T21:47:40.645Z,13.50
2023-05-10T21:50:43.838Z,13.59
2023-05-10T21:53:45.661Z,13.87
2023-05-10T21:56:49.156Z,13.80
2023-05-10T21:59:51.560Z,13.88
2023-05-10T22:02:53.526Z,13.93
2023-05-10T22:05:55.386Z,14.09
2023-05-10T22:08:57.521Z,14.05
2023-05-10T22:12:00.693Z,13.98
2023-05-10T22:18:07.475Z,13.88
2023-05-10T22:21:09.554Z,13.97
2023-05-10T22:24:11.407Z,14.15
2023-05-10T22:27:15.117Z,14.07
2023-05-10T22:30:18.220Z,13.89
2023-05-10T22:33:20.241Z,13.91
2023-05-10T22:36:22.711Z,13.97
2023-05-10T22:39:24.577Z,13.88
2023-05-10T22:42:27.824Z,13.77
2023-05-10T22:45:29.640Z,13.76
2023-05-10T22:48:34.670Z,13.75
2023-05-10T22:51:37.451Z,13.84
2023-05-10T22:54:39.224Z,13.68
2023-05-10T22:57:43.200Z,13.84
2023-05-10T23:00:45.113Z,13.82
2023-05-10T23:03:47.430Z,13.86
2023-05-10T23:06:49.268Z,13.95
2023-05-10T23:09:51.045Z,13.92
2023-05-10T23:12:56.047Z,13.80
2023-05-10T23:15:58.018Z,13.67
2023-05-10T23:19:00.413Z,13.32
2023-05-10T23:22:02.267Z,13.34
2023-05-10T23:25:04.997Z,13.28
2023-05-10T23:28:08.168Z,13.12
2023-05-10T23:31:10.318Z,13.08
2023-05-10T23:34:12.294Z,13.06
2023-05-10T23:37:15.710Z,12.85
2023-05-10T23:40:17.786Z,12.69
2023-05-10T23:43:21.828Z,12.46
2023-05-10T23:46:23.712Z,12.63
2023-05-10T23:49:25.575Z,12.71
2023-05-10T23:52:28.353Z,12.74
2023-05-10T23:55:30.199Z,12.67
2023-05-10T23:58:33.598Z,12.70
